Jim Marohn Jr.

Jim Marohn Jr.

Statistiques 2021

  • Courses courues : -
  • Nb de victoires : -
  • Nb de places : -
  • Écart gagnant : 9
  • Réussite à la gagne : -
  • Réussite à la place : -
Musique : (19) 7a 3a (18) 4a 3a 6a 8a 5a 4a 4a 1a 6a 5a 7a 3a 8a 6a 9a 6a
DateRangCatégorieAlloc.Dist.HippodromeChevalRed. KmSpé.
12/10/19 7 Trot 23 853€ 2 011m USA-YONKERS Deli-Delite 1'13"7 Attelé
12/10/19 3 Trot 31 559€ 2 011m USA-YONKERS New Heaven 1'12"8 Attelé
16/12/18 4 Trot 12 415€ 2 011m USA-YONKERS O U Sexy Guy 1'15"6 Attelé
16/12/18 3 Trot 20 396€ 2 011m USA-YONKERS Muscles On Fire 1'15"9 Attelé
16/12/18 6 Trot 20 396€ 2 011m USA-YONKERS Freddie Mac 1'15"4 Attelé
16/12/18 8 Trot 26 249€ 2 011m USA-YONKERS Chromeo 1'16"3 Attelé
16/12/18 5 Trot 32 636€ 2 011m USA-YONKERS Kinetic King 1'15"3 Attelé
02/12/18 4 Trot 12 317€ 2 011m USA-YONKERS Aigle de la Vallee 1'16"0 Attelé
02/12/18 4 Trot 22 243€ 2 011m USA-YONKERS Freddie Mac 1'14"8 Attelé
02/12/18 1 Trot 22 884€ 2 011m USA-YONKERS Just For You 1'14"3 Attelé
02/12/18 6 Trot 20 243€ 2 011m USA-YONKERS Can'tcutthatchip 1'15"1 Attelé
02/12/18 5 Trot 18 660€ 2 011m USA-YONKERS Broadway Bruiser 1'15"3 Attelé
02/12/18 7 Trot 26 050€ 2 011m USA-YONKERS Deep Question 1'15"1 Attelé
02/12/18 3 Trot 32 398€ 2 011m USA-YONKERS Torkil 1'13"9 Attelé
25/11/18 8 Trot 12 270€ 2 011m USA-YONKERS Metatron Attelé
25/11/18 6 Trot 20 159€ 2 011m USA-YONKERS Adagio de la Tour Attelé
25/11/18 9 Trot 20 159€ 2 011m USA-YONKERS Freddie Mac Attelé
25/11/18 6 Trot 25 943€ 2 011m USA-YONKERS Can'tcutthatchip Attelé
25/11/18 D Trot 25 943€ 2 011m USA-YONKERS Deep Question Attelé
18/11/18 5 Trot 17 956€ 2 011m USA-YONKERS Carson Hill 1'15"6 Attelé
18/11/18 2 Trot 19 481€ 2 011m USA-YONKERS Deep Question 1'14"2 Attelé
18/11/18 3 Trot 19 481€ 2 011m USA-YONKERS Freddie Mac 1'14"7 Attelé
18/11/18 3 Trot 22 022€ 2 011m USA-YONKERS Alaska 1'14"1 Attelé
18/11/18 5 Trot 25 071€ 2 011m USA-YONKERS Can`tcutthatchip Attelé
18/11/18 5 Trot 31 170€ 2 011m USA-YONKERS Torkil 1'13"8 Attelé
18/11/18 9 Trot 23 208€ 2 011m USA-YONKERS I Know My Chip 1'14"3 Attelé
04/11/18 5 Trot 25 071€ 2 011m USA-YONKERS Can'tcutthatchip 1'13"8 Attelé
04/11/18 6 Trot 17 956€ 2 011m USA-YONKERS Carson Hill 1'15"4 Attelé
04/11/18 8 Trot 19 481€ 2 011m USA-YONKERS Freddie Mac 1'14"5 Attelé
04/11/18 4 Trot 19 481€ 2 011m USA-YONKERS Deep Question 1'14"4 Attelé
04/11/18 3 Trot 25 071€ 2 011m USA-YONKERS Always A Good Time 1'13"7 Attelé
04/11/18 0 Trot 31 170€ 2 011m USA-YONKERS Kinetic King Attelé
13/10/18 2 Trot 25 505€ 2 011m USA-YONKERS Tober 1'14"1 Attelé
13/10/18 2 Trot 47 219€ 2 011m USA-YONKERS Kinetic King 1'13"1 Attelé
02/09/18 3 Trot 23 000€ 2 011m USA-YONKERS Freddie Mac Attelé
02/09/18 D Trot 23 000€ 2 011m USA-YONKERS Cinnabar Hall Attelé
02/09/18 5 Trot 29 600€ 2 011m USA-YONKERS Lily's Swan Pond Attelé
02/09/18 6 Trot 120 000€ 2 414m USA-YONKERS Aigle de la Vallee Attelé
26/08/18 7 Trot 19 902€ 2 011m USA-YONKERS Dark Pool 1'14"1 Attelé
26/08/18 8 Trot 25 613€ 2 011m USA-YONKERS Cash Me Out 1'13"3 Attelé
05/08/18 6 Trot 15 187€ 2 011m USA-YONKERS Brookroadgeorge Attelé
05/08/18 0 Trot 22 435€ 2 011m USA-YONKERS Law Of Attraction Attelé
05/08/18 5 Trot 19 846€ 2 011m USA-YONKERS O U Sexy Guy Attelé
05/08/18 3 Trot 19 846€ 2 011m USA-YONKERS Wild Smile Attelé
05/08/18 0 Trot 25 541€ 2 011m USA-YONKERS Tropical Trice Attelé
05/08/18 0 Trot 30 201€ 2 011m USA-YONKERS Aigle de la Vallee Attelé
05/08/18 4 Trot 47 286€ 2 011m USA-YONKERS Cash Me Out Attelé
29/07/18 4 Trot 21 200€ 2 011m USA-YONKERS Aperfectruby 1'13"6 Attelé
29/07/18 2 Trot 23 000€ 2 011m USA-YONKERS Tropical Trice 1'13"7 Attelé
29/07/18 7 Trot 29 600€ 2 011m USA-YONKERS Lucky Colby 1'13"1 Attelé